sensor_id;sensor_type;location;lat;lon;timestamp;P1;durP1;ratioP1;P2;durP2;ratioP2
70165;SDS011;57541;47.408;18.822;2023-08-20T00:00:24;23.07;;;14.67;;
70165;SDS011;57541;47.408;18.822;2023-08-20T00:00:56;20.45;;;14.55;;
70165;SDS011;57541;47.408;18.822;2023-08-20T00:01:28;21.35;;;15.38;;
70165;SDS011;57541;47.408;18.822;2023-08-20T00:02:01;22.77;;;15.05;;
70165;SDS011;57541;47.408;18.822;2023-08-20T00:02:33;19.48;;;14.25;;
70165;SDS011;57541;47.408;18.822;2023-08-20T00:03:10;21.65;;;14.68;;
70165;SDS011;57541;47.408;18.822;2023-08-20T00:03:43;21.70;;;13.63;;
70165;SDS011;57541;47.408;18.822;2023-08-20T00:04:17;21.58;;;14.80;;
70165;SDS011;57541;47.408;18.822;2023-08-20T00:04:49;19.85;;;14.48;;
70165;SDS011;57541;47.408;18.822;2023-08-20T00:05:22;22.15;;;14.45;;
70165;SDS011;57541;47.408;18.822;2023-08-20T00:05:54;20.60;;;14.97;;
70165;SDS011;57541;47.408;18.822;2023-08-20T00:06:26;22.05;;;14.15;;
70165;SDS011;57541;47.408;18.822;2023-08-20T00:06:58;22.98;;;14.93;;
70165;SDS011;57541;47.408;18.822;2023-08-20T00:07:31;20.42;;;14.57;;
70165;SDS011;57541;47.408;18.822;2023-08-20T00:08:03;20.20;;;14.35;;
70165;SDS011;57541;47.408;18.822;2023-08-20T00:08:35;20.55;;;14.50;;
70165;SDS011;57541;47.408;18.822;2023-08-20T00:09:07;20.88;;;13.93;;
70165;SDS011;57541;47.408;18.822;2023-08-20T00:09:39;19.60;;;13.73;;
70165;SDS011;57541;47.408;18.822;2023-08-20T00:10:11;22.15;;;15.10;;
70165;SDS011;57541;47.408;18.822;2023-08-20T00:10:43;20.40;;;14.23;;
70165;SDS011;57541;47.408;18.822;2023-08-20T00:11:15;21.70;;;14.80;;
70165;SDS011;57541;47.408;18.822;2023-08-20T00:11:47;20.38;;;14.77;;
70165;SDS011;57541;47.408;18.822;2023-08-20T00:12:19;22.67;;;14.07;;
70165;SDS011;57541;47.408;18.822;2023-08-20T00:12:50;22.27;;;15.73;;
70165;SDS011;57541;47.408;18.822;2023-08-20T00:13:22;20.98;;;15.32;;
70165;SDS011;57541;47.408;18.822;2023-08-20T00:13:54;23.90;;;15.18;;
70165;SDS011;57541;47.408;18.822;2023-08-20T00:15:35;20.38;;;14.38;;
70165;SDS011;57541;47.408;18.822;2023-08-20T00:16:08;20.10;;;13.50;;
70165;SDS011;57541;47.408;18.822;2023-08-20T00:16:40;21.00;;;14.63;;
70165;SDS011;57541;47.408;18.822;2023-08-20T00:17:12;22.00;;;15.13;;
70165;SDS011;57541;47.408;18.822;2023-08-20T00:17:44;23.25;;;15.70;;
70165;SDS011;57541;47.408;18.822;2023-08-20T00:18:17;22.02;;;14.88;;
70165;SDS011;57541;47.408;18.822;2023-08-20T00:18:49;24.95;;;15.85;;
70165;SDS011;57541;47.408;18.822;2023-08-20T00:19:21;20.02;;;15.10;;
70165;SDS011;57541;47.408;18.822;2023-08-20T00:19:53;22.63;;;15.38;;
70165;SDS011;57541;47.408;18.822;2023-08-20T00:20:26;21.60;;;15.77;;
70165;SDS011;57541;47.408;18.822;2023-08-20T00:20:59;20.58;;;14.93;;
70165;SDS011;57541;47.408;18.822;2023-08-20T00:21:31;25.08;;;15.68;;
70165;SDS011;57541;47.408;18.822;2023-08-20T00:22:04;22.60;;;15.48;;
70165;SDS011;57541;47.408;18.822;2023-08-20T00:22:36;24.10;;;16.07;;
70165;SDS011;57541;47.408;18.822;2023-08-20T00:23:08;23.77;;;15.48;;
70165;SDS011;57541;47.408;18.822;2023-08-20T00:23:40;22.13;;;16.17;;
70165;SDS011;57541;47.408;18.822;2023-08-20T00:24:12;22.95;;;15.35;;
70165;SDS011;57541;47.408;18.822;2023-08-20T00:24:44;24.10;;;14.60;;
70165;SDS011;57541;47.408;18.822;2023-08-20T00:25:17;21.65;;;14.90;;
70165;SDS011;57541;47.408;18.822;2023-08-20T00:25:49;22.60;;;15.73;;
70165;SDS011;57541;47.408;18.822;2023-08-20T00:26:21;22.38;;;15.07;;
70165;SDS011;57541;47.408;18.822;2023-08-20T00:26:53;22.50;;;15.55;;
70165;SDS011;57541;47.408;18.822;2023-08-20T00:27:25;23.08;;;15.13;;
70165;SDS011;57541;47.408;18.822;2023-08-20T00:27:56;21.87;;;14.87;;
70165;SDS011;57541;47.408;18.822;2023-08-20T00:28:28;21.83;;;15.30;;
70165;SDS011;57541;47.408;18.822;2023-08-20T00:29:00;21.90;;;15.05;;
70165;SDS011;57541;47.408;18.822;2023-08-20T00:29:32;24.33;;;16.38;;
70165;SDS011;57541;47.408;18.822;2023-08-20T00:30:04;21.23;;;14.55;;
70165;SDS011;57541;47.408;18.822;2023-08-20T00:30:36;22.33;;;15.65;;
70165;SDS011;57541;47.408;18.822;2023-08-20T00:31:07;20.77;;;15.10;;
70165;SDS011;57541;47.408;18.822;2023-08-20T00:31:39;21.05;;;14.95;;
70165;SDS011;57541;47.408;18.822;2023-08-20T00:32:11;22.27;;;15.43;;
70165;SDS011;57541;47.408;18.822;2023-08-20T00:32:43;22.85;;;14.43;;
70165;SDS011;57541;47.408;18.822;2023-08-20T00:33:14;22.10;;;15.20;;
70165;SDS011;57541;47.408;18.822;2023-08-20T00:33:46;22.15;;;15.75;;
70165;SDS011;57541;47.408;18.822;2023-08-20T00:34:31;24.80;;;15.02;;
70165;SDS011;57541;47.408;18.822;2023-08-20T00:35:03;24.23;;;15.85;;
70165;SDS011;57541;47.408;18.822;2023-08-20T00:35:35;23.52;;;15.60;;
70165;SDS011;57541;47.408;18.822;2023-08-20T00:36:07;19.80;;;14.75;;
70165;SDS011;57541;47.408;18.822;2023-08-20T00:36:39;23.10;;;15.27;;
70165;SDS011;57541;47.408;18.822;2023-08-20T00:37:10;22.35;;;15.60;;
70165;SDS011;57541;47.408;18.822;2023-08-20T00:37:43;21.95;;;14.68;;
70165;SDS011;57541;47.408;18.822;2023-08-20T00:38:16;20.60;;;14.93;;
70165;SDS011;57541;47.408;18.822;2023-08-20T00:38:47;20.60;;;14.13;;
70165;SDS011;57541;47.408;18.822;2023-08-20T00:39:19;22.52;;;15.80;;
70165;SDS011;57541;47.408;18.822;2023-08-20T00:39:51;22.98;;;16.02;;
70165;SDS011;57541;47.408;18.822;2023-08-20T00:40:22;22.70;;;14.93;;
70165;SDS011;57541;47.408;18.822;2023-08-20T00:40:54;26.90;;;16.02;;
70165;SDS011;57541;47.408;18.822;2023-08-20T00:41:26;20.80;;;14.95;;
70165;SDS011;57541;47.408;18.822;2023-08-20T00:41:57;22.55;;;15.63;;
70165;SDS011;57541;47.408;18.822;2023-08-20T00:42:29;22.42;;;15.18;;
70165;SDS011;57541;47.408;18.822;2023-08-20T00:43:01;22.88;;;15.15;;
70165;SDS011;57541;47.408;18.822;2023-08-20T00:43:33;23.50;;;16.05;;
70165;SDS011;57541;47.408;18.822;2023-08-20T00:44:05;22.07;;;16.23;;
70165;SDS011;57541;47.408;18.822;2023-08-20T00:44:36;22.90;;;15.48;;
70165;SDS011;57541;47.408;18.822;2023-08-20T00:45:08;23.17;;;16.13;;
70165;SDS011;57541;47.408;18.822;2023-08-20T00:45:41;21.70;;;15.35;;
70165;SDS011;57541;47.408;18.822;2023-08-20T00:46:13;22.30;;;15.77;;
70165;SDS011;57541;47.408;18.822;2023-08-20T00:46:45;23.50;;;15.30;;
70165;SDS011;57541;47.408;18.822;2023-08-20T00:47:17;25.02;;;15.18;;
70165;SDS011;57541;47.408;18.822;2023-08-20T00:47:49;21.92;;;15.38;;
70165;SDS011;57541;47.408;18.822;2023-08-20T00:48:23;22.85;;;15.82;;
70165;SDS011;57541;47.408;18.822;2023-08-20T00:48:55;21.35;;;15.18;;
70165;SDS011;57541;47.408;18.822;2023-08-20T00:49:27;22.70;;;15.90;;
70165;SDS011;57541;47.408;18.822;2023-08-20T00:49:59;23.50;;;14.70;;
70165;SDS011;57541;47.408;18.822;2023-08-20T00:50:31;22.70;;;15.23;;
70165;SDS011;57541;47.408;18.822;2023-08-20T00:51:03;23.13;;;15.25;;
70165;SDS011;57541;47.408;18.822;2023-08-20T00:51:35;23.13;;;15.48;;
70165;SDS011;57541;47.408;18.822;2023-08-20T00:52:08;24.45;;;15.23;;
70165;SDS011;57541;47.408;18.822;2023-08-20T00:52:40;22.70;;;14.35;;
70165;SDS011;57541;47.408;18.822;2023-08-20T00:53:12;21.60;;;15.07;;
70165;SDS011;57541;47.408;18.822;2023-08-20T00:53:45;21.08;;;14.93;;
70165;SDS011;57541;47.408;18.822;2023-08-20T00:54:16;21.73;;;14.05;;
70165;SDS011;57541;47.408;18.822;2023-08-20T00:54:49;21.50;;;13.93;;
70165;SDS011;57541;47.408;18.822;2023-08-20T00:55:21;20.95;;;15.07;;
70165;SDS011;57541;47.408;18.822;2023-08-20T00:55:53;20.10;;;14.52;;
70165;SDS011;57541;47.408;18.822;2023-08-20T00:56:24;19.20;;;14.43;;
70165;SDS011;57541;47.408;18.822;2023-08-20T00:56:56;22.15;;;14.95;;
70165;SDS011;57541;47.408;18.822;2023-08-20T00:57:29;21.02;;;14.35;;
70165;SDS011;57541;47.408;18.822;2023-08-20T00:58:00;20.23;;;14.13;;
70165;SDS011;57541;47.408;18.822;2023-08-20T00:58:32;19.88;;;14.35;;
70165;SDS011;57541;47.408;18.822;2023-08-20T00:59:05;20.15;;;14.32;;
70165;SDS011;57541;47.408;18.822;2023-08-20T00:59:37;22.08;;;15.05;;
70165;SDS011;57541;47.408;18.822;2023-08-20T01:00:09;21.73;;;14.97;;
70165;SDS011;57541;47.408;18.822;2023-08-20T01:00:42;21.50;;;14.77;;
70165;SDS011;57541;47.408;18.822;2023-08-20T01:01:14;20.75;;;14.93;;
70165;SDS011;57541;47.408;18.822;2023-08-20T01:01:46;23.25;;;14.18;;
70165;SDS011;57541;47.408;18.822;2023-08-20T01:02:18;22.60;;;14.07;;
70165;SDS011;57541;47.408;18.822;2023-08-20T01:02:49;20.55;;;14.52;;
70165;SDS011;57541;47.408;18.822;2023-08-20T01:03:21;20.38;;;14.55;;
70165;SDS011;57541;47.408;18.822;2023-08-20T01:03:53;20.65;;;14.25;;
70165;SDS011;57541;47.408;18.822;2023-08-20T01:04:25;22.80;;;14.48;;
70165;SDS011;57541;47.408;18.822;2023-08-20T01:04:57;20.25;;;14.35;;
70165;SDS011;57541;47.408;18.822;2023-08-20T01:05:30;20.53;;;15.03;;
70165;SDS011;57541;47.408;18.822;2023-08-20T01:09:13;20.40;;;14.10;;
70165;SDS011;57541;47.408;18.822;2023-08-20T01:10:08;21.40;;;13.70;;
70165;SDS011;57541;47.408;18.822;2023-08-20T01:10:56;21.75;;;13.52;;
70165;SDS011;57541;47.408;18.822;2023-08-20T01:11:33;21.73;;;13.30;;
70165;SDS011;57541;47.408;18.822;2023-08-20T01:12:09;21.65;;;14.38;;
70165;SDS011;57541;47.408;18.822;2023-08-20T01:12:41;23.88;;;14.40;;
70165;SDS011;57541;47.408;18.822;2023-08-20T01:13:15;22.13;;;14.10;;
70165;SDS011;57541;47.408;18.822;2023-08-20T01:13:47;21.48;;;14.80;;
70165;SDS011;57541;47.408;18.822;2023-08-20T01:14:20;21.33;;;15.00;;
70165;SDS011;57541;47.408;18.822;2023-08-20T01:14:52;21.73;;;14.32;;
70165;SDS011;57541;47.408;18.822;2023-08-20T01:15:24;20.67;;;14.52;;
70165;SDS011;57541;47.408;18.822;2023-08-20T01:15:56;21.55;;;14.20;;
70165;SDS011;57541;47.408;18.822;2023-08-20T01:16:28;23.70;;;14.55;;
70165;SDS011;57541;47.408;18.822;2023-08-20T01:16:59;21.20;;;15.27;;
70165;SDS011;57541;47.408;18.822;2023-08-20T01:17:31;22.90;;;15.43;;
70165;SDS011;57541;47.408;18.822;2023-08-20T01:18:03;21.33;;;14.27;;
70165;SDS011;57541;47.408;18.822;2023-08-20T01:18:35;20.10;;;14.93;;
70165;SDS011;57541;47.408;18.822;2023-08-20T01:19:07;22.23;;;15.32;;
70165;SDS011;57541;47.408;18.822;2023-08-20T01:19:43;21.13;;;14.27;;
70165;SDS011;57541;47.408;18.822;2023-08-20T01:20:15;23.10;;;15.48;;
70165;SDS011;57541;47.408;18.822;2023-08-20T01:20:51;20.55;;;14.95;;
70165;SDS011;57541;47.408;18.822;2023-08-20T01:21:37;24.65;;;14.38;;
70165;SDS011;57541;47.408;18.822;2023-08-20T01:24:28;19.30;;;12.90;;
70165;SDS011;57541;47.408;18.822;2023-08-20T01:25:11;23.02;;;13.50;;
70165;SDS011;57541;47.408;18.822;2023-08-20T01:26:07;18.50;;;12.87;;
70165;SDS011;57541;47.408;18.822;2023-08-20T01:27:10;17.65;;;12.63;;
70165;SDS011;57541;47.408;18.822;2023-08-20T01:28:30;21.35;;;13.30;;
70165;SDS011;57541;47.408;18.822;2023-08-20T01:29:02;20.55;;;13.13;;
70165;SDS011;57541;47.408;18.822;2023-08-20T01:29:36;20.77;;;13.23;;
70165;SDS011;57541;47.408;18.822;2023-08-20T01:30:09;20.90;;;14.65;;
70165;SDS011;57541;47.408;18.822;2023-08-20T01:30:42;20.08;;;13.52;;
70165;SDS011;57541;47.408;18.822;2023-08-20T01:31:14;19.63;;;14.00;;
70165;SDS011;57541;47.408;18.822;2023-08-20T01:31:47;22.00;;;14.38;;
70165;SDS011;57541;47.408;18.822;2023-08-20T01:32:19;29.00;;;14.17;;
70165;SDS011;57541;47.408;18.822;2023-08-20T01:32:52;20.30;;;14.38;;
70165;SDS011;57541;47.408;18.822;2023-08-20T01:33:25;21.35;;;15.15;;
70165;SDS011;57541;47.408;18.822;2023-08-20T01:33:58;21.45;;;13.70;;
70165;SDS011;57541;47.408;18.822;2023-08-20T01:34:29;22.45;;;14.65;;
70165;SDS011;57541;47.408;18.822;2023-08-20T01:35:02;21.65;;;14.50;;
70165;SDS011;57541;47.408;18.822;2023-08-20T01:35:34;21.65;;;15.48;;
70165;SDS011;57541;47.408;18.822;2023-08-20T01:36:07;20.75;;;15.25;;
70165;SDS011;57541;47.408;18.822;2023-08-20T01:36:41;21.85;;;14.82;;
70165;SDS011;57541;47.408;18.822;2023-08-20T01:37:12;22.08;;;14.95;;
70165;SDS011;57541;47.408;18.822;2023-08-20T01:37:45;22.13;;;15.03;;
70165;SDS011;57541;47.408;18.822;2023-08-20T01:38:17;22.42;;;13.88;;
70165;SDS011;57541;47.408;18.822;2023-08-20T01:38:49;23.10;;;15.02;;
70165;SDS011;57541;47.408;18.822;2023-08-20T01:39:20;26.08;;;15.10;;
70165;SDS011;57541;47.408;18.822;2023-08-20T01:39:52;22.13;;;15.18;;
70165;SDS011;57541;47.408;18.822;2023-08-20T01:40:24;22.55;;;15.13;;
70165;SDS011;57541;47.408;18.822;2023-08-20T01:40:55;23.58;;;15.85;;
70165;SDS011;57541;47.408;18.822;2023-08-20T01:41:27;22.95;;;15.63;;
70165;SDS011;57541;47.408;18.822;2023-08-20T01:41:59;21.67;;;15.50;;
70165;SDS011;57541;47.408;18.822;2023-08-20T01:42:31;25.88;;;15.77;;
70165;SDS011;57541;47.408;18.822;2023-08-20T01:43:02;21.10;;;14.47;;
70165;SDS011;57541;47.408;18.822;2023-08-20T01:43:34;21.98;;;14.50;;
70165;SDS011;57541;47.408;18.822;2023-08-20T01:44:06;21.85;;;15.40;;
70165;SDS011;57541;47.408;18.822;2023-08-20T01:44:38;23.13;;;15.65;;
70165;SDS011;57541;47.408;18.822;2023-08-20T01:45:10;25.30;;;16.27;;
70165;SDS011;57541;47.408;18.822;2023-08-20T01:45:42;25.17;;;15.65;;
70165;SDS011;57541;47.408;18.822;2023-08-20T01:46:14;22.33;;;14.90;;
70165;SDS011;57541;47.408;18.822;2023-08-20T01:46:46;23.95;;;14.18;;
70165;SDS011;57541;47.408;18.822;2023-08-20T01:47:18;23.77;;;15.93;;
70165;SDS011;57541;47.408;18.822;2023-08-20T01:47:50;21.08;;;15.00;;
70165;SDS011;57541;47.408;18.822;2023-08-20T01:48:21;21.63;;;14.87;;
70165;SDS011;57541;47.408;18.822;2023-08-20T01:48:53;22.85;;;15.60;;
70165;SDS011;57541;47.408;18.822;2023-08-20T01:49:25;23.00;;;15.23;;
70165;SDS011;57541;47.408;18.822;2023-08-20T01:49:56;22.40;;;15.23;;
70165;SDS011;57541;47.408;18.822;2023-08-20T01:50:28;26.15;;;15.15;;
70165;SDS011;57541;47.408;18.822;2023-08-20T01:51:00;23.65;;;15.32;;
70165;SDS011;57541;47.408;18.822;2023-08-20T01:51:32;22.15;;;15.38;;
70165;SDS011;57541;47.408;18.822;2023-08-20T01:52:04;26.30;;;15.63;;
70165;SDS011;57541;47.408;18.822;2023-08-20T01:52:36;24.33;;;15.63;;
70165;SDS011;57541;47.408;18.822;2023-08-20T01:53:07;23.63;;;15.57;;
70165;SDS011;57541;47.408;18.822;2023-08-20T01:53:39;22.87;;;15.87;;
70165;SDS011;57541;47.408;18.822;2023-08-20T01:54:11;26.15;;;15.60;;
70165;SDS011;57541;47.408;18.822;2023-08-20T01:54:42;24.90;;;15.10;;
70165;SDS011;57541;47.408;18.822;2023-08-20T01:55:14;24.90;;;16.25;;
70165;SDS011;57541;47.408;18.822;2023-08-20T01:55:46;26.63;;;15.77;;
70165;SDS011;57541;47.408;18.822;2023-08-20T01:56:18;25.30;;;16.23;;
70165;SDS011;57541;47.408;18.822;2023-08-20T01:56:49;24.65;;;16.60;;
70165;SDS011;57541;47.408;18.822;2023-08-20T01:57:21;21.35;;;14.75;;
70165;SDS011;57541;47.408;18.822;2023-08-20T01:57:53;21.90;;;15.60;;
70165;SDS011;57541;47.408;18.822;2023-08-20T01:58:24;21.67;;;14.90;;
70165;SDS011;57541;47.408;18.822;2023-08-20T01:58:56;20.93;;;15.40;;
70165;SDS011;57541;47.408;18.822;2023-08-20T01:59:28;27.48;;;16.27;;
70165;SDS011;57541;47.408;18.822;2023-08-20T01:59:59;21.58;;;15.73;;
70165;SDS011;57541;47.408;18.822;2023-08-20T02:00:31;23.15;;;15.50;;
70165;SDS011;57541;47.408;18.822;2023-08-20T02:01:05;28.00;;;16.35;;
70165;SDS011;57541;47.408;18.822;2023-08-20T02:01:36;22.83;;;15.52;;
70165;SDS011;57541;47.408;18.822;2023-08-20T02:02:08;27.00;;;15.52;;
70165;SDS011;57541;47.408;18.822;2023-08-20T02:02:40;23.65;;;15.68;;
70165;SDS011;57541;47.408;18.822;2023-08-20T02:03:12;22.88;;;15.52;;
70165;SDS011;57541;47.408;18.822;2023-08-20T02:03:43;23.90;;;15.57;;
70165;SDS011;57541;47.408;18.822;2023-08-20T02:04:15;20.47;;;15.43;;
70165;SDS011;57541;47.408;18.822;2023-08-20T02:04:47;22.33;;;15.23;;
70165;SDS011;57541;47.408;18.822;2023-08-20T02:05:18;23.17;;;16.00;;
70165;SDS011;57541;47.408;18.822;2023-08-20T02:05:50;23.95;;;15.38;;
70165;SDS011;57541;47.408;18.822;2023-08-20T02:06:22;23.85;;;15.50;;
70165;SDS011;57541;47.408;18.822;2023-08-20T02:06:54;21.98;;;15.38;;
70165;SDS011;57541;47.408;18.822;2023-08-20T02:07:25;22.38;;;15.60;;
70165;SDS011;57541;47.408;18.822;2023-08-20T02:07:57;23.58;;;15.57;;
70165;SDS011;57541;47.408;18.822;2023-08-20T02:08:29;23.20;;;14.43;;
70165;SDS011;57541;47.408;18.822;2023-08-20T02:09:01;24.45;;;15.23;;
70165;SDS011;57541;47.408;18.822;2023-08-20T02:09:32;23.50;;;14.93;;
70165;SDS011;57541;47.408;18.822;2023-08-20T02:10:04;22.10;;;15.40;;
70165;SDS011;57541;47.408;18.822;2023-08-20T02:10:36;23.35;;;15.30;;
70165;SDS011;57541;47.408;18.822;2023-08-20T02:11:08;22.88;;;15.60;;
70165;SDS011;57541;47.408;18.822;2023-08-20T02:11:40;22.20;;;15.13;;
70165;SDS011;57541;47.408;18.822;2023-08-20T02:12:11;22.75;;;14.40;;
70165;SDS011;57541;47.408;18.822;2023-08-20T02:12:43;24.65;;;15.05;;
70165;SDS011;57541;47.408;18.822;2023-08-20T02:13:15;22.70;;;15.43;;
70165;SDS011;57541;47.408;18.822;2023-08-20T02:13:46;20.65;;;14.63;;
70165;SDS011;57541;47.408;18.822;2023-08-20T02:14:18;18.95;;;14.02;;
70165;SDS011;57541;47.408;18.822;2023-08-20T02:14:50;20.30;;;14.67;;
70165;SDS011;57541;47.408;18.822;2023-08-20T02:15:21;21.40;;;14.82;;
70165;SDS011;57541;47.408;18.822;2023-08-20T02:16:00;21.13;;;13.98;;
70165;SDS011;57541;47.408;18.822;2023-08-20T02:16:32;22.90;;;14.60;;
70165;SDS011;57541;47.408;18.822;2023-08-20T02:17:04;20.70;;;14.50;;
70165;SDS011;57541;47.408;18.822;2023-08-20T02:17:36;21.02;;;14.65;;
70165;SDS011;57541;47.408;18.822;2023-08-20T02:18:09;20.75;;;14.20;;
70165;SDS011;57541;47.408;18.822;2023-08-20T02:18:40;20.90;;;14.27;;
70165;SDS011;57541;47.408;18.822;2023-08-20T02:19:12;21.35;;;14.57;;
70165;SDS011;57541;47.408;18.822;2023-08-20T02:19:44;19.13;;;13.90;;
70165;SDS011;57541;47.408;18.822;2023-08-20T02:20:15;19.40;;;13.93;;
70165;SDS011;57541;47.408;18.822;2023-08-20T02:20:47;19.95;;;13.95;;
70165;SDS011;57541;47.408;18.822;2023-08-20T02:21:19;20.95;;;13.90;;
70165;SDS011;57541;47.408;18.822;2023-08-20T02:21:51;21.30;;;13.75;;
70165;SDS011;57541;47.408;18.822;2023-08-20T02:22:24;19.42;;;14.30;;
70165;SDS011;57541;47.408;18.822;2023-08-20T02:22:56;18.92;;;13.27;;
70165;SDS011;57541;47.408;18.822;2023-08-20T02:23:28;21.20;;;13.98;;
70165;SDS011;57541;47.408;18.822;2023-08-20T02:23:59;22.30;;;15.02;;
70165;SDS011;57541;47.408;18.822;2023-08-20T02:24:31;20.15;;;14.07;;
70165;SDS011;57541;47.408;18.822;2023-08-20T02:25:03;20.77;;;14.00;;
70165;SDS011;57541;47.408;18.822;2023-08-20T02:25:35;21.97;;;13.73;;
70165;SDS011;57541;47.408;18.822;2023-08-20T02:26:07;18.75;;;14.40;;
70165;SDS011;57541;47.408;18.822;2023-08-20T02:26:38;20.30;;;13.63;;
70165;SDS011;57541;47.408;18.822;2023-08-20T02:27:10;20.92;;;13.57;;
70165;SDS011;57541;47.408;18.822;2023-08-20T02:27:42;18.48;;;14.07;;
70165;SDS011;57541;47.408;18.822;2023-08-20T02:28:13;21.65;;;14.00;;
70165;SDS011;57541;47.408;18.822;2023-08-20T02:28:45;20.63;;;13.27;;
70165;SDS011;57541;47.408;18.822;2023-08-20T02:29:17;19.40;;;13.82;;
70165;SDS011;57541;47.408;18.822;2023-08-20T02:29:49;19.58;;;13.65;;
70165;SDS011;57541;47.408;18.822;2023-08-20T02:30:20;20.83;;;13.77;;
70165;SDS011;57541;47.408;18.822;2023-08-20T02:30:52;20.80;;;13.80;;
70165;SDS011;57541;47.408;18.822;2023-08-20T02:31:24;20.75;;;14.73;;
70165;SDS011;57541;47.408;18.822;2023-08-20T02:31:58;20.38;;;14.07;;
70165;SDS011;57541;47.408;18.822;2023-08-20T02:32:30;22.08;;;13.95;;
70165;SDS011;57541;47.408;18.822;2023-08-20T02:33:04;21.25;;;14.57;;
70165;SDS011;57541;47.408;18.822;2023-08-20T02:33:36;19.25;;;13.95;;
70165;SDS011;57541;47.408;18.822;2023-08-20T02:34:08;20.65;;;14.98;;
70165;SDS011;57541;47.408;18.822;2023-08-20T02:34:40;21.17;;;13.82;;
70165;SDS011;57541;47.408;18.822;2023-08-20T02:35:12;19.23;;;14.05;;
70165;SDS011;57541;47.408;18.822;2023-08-20T02:35:46;23.05;;;14.02;;
70165;SDS011;57541;47.408;18.822;2023-08-20T02:36:17;21.00;;;13.87;;
70165;SDS011;57541;47.408;18.822;2023-08-20T02:36:49;22.38;;;13.32;;
70165;SDS011;57541;47.408;18.822;2023-08-20T02:37:21;19.17;;;13.25;;
70165;SDS011;57541;47.408;18.822;2023-08-20T02:37:53;21.05;;;14.70;;
70165;SDS011;57541;47.408;18.822;2023-08-20T02:38:24;20.08;;;13.65;;
70165;SDS011;57541;47.408;18.822;2023-08-20T02:38:56;19.80;;;13.98;;
70165;SDS011;57541;47.408;18.822;2023-08-20T02:39:28;19.80;;;14.20;;
70165;SDS011;57541;47.408;18.822;2023-08-20T02:39:59;18.90;;;13.48;;
70165;SDS011;57541;47.408;18.822;2023-08-20T02:40:31;20.42;;;13.95;;
70165;SDS011;57541;47.408;18.822;2023-08-20T02:41:03;19.30;;;13.07;;
70165;SDS011;57541;47.408;18.822;2023-08-20T02:41:35;20.13;;;13.00;;
70165;SDS011;57541;47.408;18.822;2023-08-20T02:42:07;21.10;;;13.07;;
70165;SDS011;57541;47.408;18.822;2023-08-20T02:42:39;19.52;;;13.98;;
70165;SDS011;57541;47.408;18.822;2023-08-20T02:43:10;20.48;;;14.40;;
70165;SDS011;57541;47.408;18.822;2023-08-20T02:43:42;21.42;;;14.10;;
70165;SDS011;57541;47.408;18.822;2023-08-20T02:44:14;20.10;;;13.90;;
70165;SDS011;57541;47.408;18.822;2023-08-20T02:44:45;20.20;;;13.48;;
70165;SDS011;57541;47.408;18.822;2023-08-20T02:45:17;19.65;;;13.48;;
70165;SDS011;57541;47.408;18.822;2023-08-20T02:45:49;21.00;;;14.73;;
70165;SDS011;57541;47.408;18.822;2023-08-20T02:46:21;21.17;;;14.00;;
70165;SDS011;57541;47.408;18.822;2023-08-20T02:46:53;20.97;;;14.40;;
70165;SDS011;57541;47.408;18.822;2023-08-20T02:47:24;19.83;;;14.10;;
70165;SDS011;57541;47.408;18.822;2023-08-20T02:47:57;18.40;;;13.45;;
70165;SDS011;57541;47.408;18.822;2023-08-20T02:48:29;19.52;;;12.95;;
70165;SDS011;57541;47.408;18.822;2023-08-20T02:49:01;18.23;;;13.48;;
70165;SDS011;57541;47.408;18.822;2023-08-20T02:49:33;23.42;;;13.77;;
70165;SDS011;57541;47.408;18.822;2023-08-20T02:50:05;18.38;;;13.93;;
70165;SDS011;57541;47.408;18.822;2023-08-20T02:50:37;19.80;;;14.10;;
70165;SDS011;57541;47.408;18.822;2023-08-20T02:51:09;19.20;;;13.35;;
70165;SDS011;57541;47.408;18.822;2023-08-20T02:51:42;17.75;;;13.15;;
70165;SDS011;57541;47.408;18.822;2023-08-20T02:52:14;19.67;;;13.60;;
70165;SDS011;57541;47.408;18.822;2023-08-20T02:52:46;19.17;;;14.00;;
70165;SDS011;57541;47.408;18.822;2023-08-20T02:53:18;21.02;;;14.20;;
70165;SDS011;57541;47.408;18.822;2023-08-20T02:53:49;18.45;;;13.75;;
70165;SDS011;57541;47.408;18.822;2023-08-20T02:54:21;19.80;;;13.85;;
70165;SDS011;57541;47.408;18.822;2023-08-20T02:54:53;24.42;;;13.82;;
70165;SDS011;57541;47.408;18.822;2023-08-20T02:55:24;21.42;;;13.48;;
70165;SDS011;57541;47.408;18.822;2023-08-20T02:55:56;19.15;;;13.32;;
70165;SDS011;57541;47.408;18.822;2023-08-20T02:56:28;22.88;;;13.88;;
70165;SDS011;57541;47.408;18.822;2023-08-20T02:56:59;19.13;;;13.80;;
70165;SDS011;57541;47.408;18.822;2023-08-20T02:57:31;18.63;;;13.93;;
70165;SDS011;57541;47.408;18.822;2023-08-20T02:58:04;20.33;;;13.15;;
70165;SDS011;57541;47.408;18.822;2023-08-20T02:58:39;19.30;;;13.98;;
70165;SDS011;57541;47.408;18.822;2023-08-20T02:59:10;21.33;;;14.05;;
70165;SDS011;57541;47.408;18.822;2023-08-20T02:59:42;20.40;;;12.95;;
70165;SDS011;57541;47.408;18.822;2023-08-20T03:00:14;22.77;;;14.35;;
70165;SDS011;57541;47.408;18.822;2023-08-20T03:00:46;18.70;;;13.57;;
70165;SDS011;57541;47.408;18.822;2023-08-20T03:01:19;20.98;;;13.85;;
70165;SDS011;57541;47.408;18.822;2023-08-20T03:01:52;18.67;;;13.23;;
70165;SDS011;57541;47.408;18.822;2023-08-20T03:02:24;20.13;;;13.60;;
70165;SDS011;57541;47.408;18.822;2023-08-20T03:02:55;19.43;;;13.50;;
70165;SDS011;57541;47.408;18.822;2023-08-20T03:03:27;18.15;;;12.85;;
70165;SDS011;57541;47.408;18.822;2023-08-20T03:03:59;19.80;;;13.57;;
70165;SDS011;57541;47.408;18.822;2023-08-20T03:04:31;19.40;;;13.30;;
70165;SDS011;57541;47.408;18.822;2023-08-20T03:05:03;17.88;;;13.23;;
70165;SDS011;57541;47.408;18.822;2023-08-20T03:05:38;22.10;;;13.98;;
70165;SDS011;57541;47.408;18.822;2023-08-20T03:06:09;22.95;;;13.82;;
70165;SDS011;57541;47.408;18.822;2023-08-20T03:06:41;18.77;;;12.98;;
70165;SDS011;57541;47.408;18.822;2023-08-20T03:07:15;19.48;;;13.13;;
70165;SDS011;57541;47.408;18.822;2023-08-20T03:07:47;20.15;;;13.60;;
70165;SDS011;57541;47.408;18.822;2023-08-20T03:08:18;19.87;;;13.90;;
70165;SDS011;57541;47.408;18.822;2023-08-20T03:08:50;24.08;;;13.93;;
70165;SDS011;57541;47.408;18.822;2023-08-20T03:09:22;21.05;;;14.05;;
70165;SDS011;57541;47.408;18.822;2023-08-20T03:09:54;19.63;;;13.90;;
70165;SDS011;57541;47.408;18.822;2023-08-20T03:10:26;18.20;;;13.23;;
70165;SDS011;57541;47.408;18.822;2023-08-20T03:10:58;19.77;;;14.55;;
70165;SDS011;57541;47.408;18.822;2023-08-20T03:11:30;21.23;;;13.90;;
70165;SDS011;57541;47.408;18.822;2023-08-20T03:12:02;20.58;;;14.38;;
70165;SDS011;57541;47.408;18.822;2023-08-20T03:12:33;19.52;;;13.20;;
70165;SDS011;57541;47.408;18.822;2023-08-20T03:13:05;18.27;;;13.55;;
70165;SDS011;57541;47.408;18.822;2023-08-20T03:13:37;19.67;;;13.87;;
70165;SDS011;57541;47.408;18.822;2023-08-20T03:14:09;20.92;;;13.27;;
70165;SDS011;57541;47.408;18.822;2023-08-20T03:14:41;20.75;;;13.77;;